Time;durP1;ratioP1;P1;durP2;ratioP2;P2;SDS_P1;SDS_P2;PMS_P1;PMS_P2;Temp;Humidity;BMP_temperature;BMP_pressure;BME280_temperature;BME280_humidity;BME280_pressure;Samples;Min_cycle;Max_cycle;Signal;HPM_P1;HPM_P2
2023/07/26 00:01:55;;;;;;;3.90;2.03;;;;;;;14.06;73.48;100168.66;7393532;19;20028;-67
2023/07/26 00:04:23;;;;;;;4.38;1.83;;;;;;;14.06;73.46;100172.13;7394221;19;20010;-68
2023/07/26 00:06:52;;;;;;;5.95;1.83;;;;;;;14.06;73.19;100160.75;7392874;19;20010;-67
2023/07/26 00:09:21;;;;;;;4.68;1.77;;;;;;;14.06;73.38;100180.03;7395024;19;20031;-68
2023/07/26 00:11:49;;;;;;;3.05;1.85;;;;;;;14.07;73.42;100176.50;7393446;19;20014;-67
2023/07/26 00:14:20;;;;;;;3.63;1.73;;;;;;;14.07;73.22;100173.84;7394240;19;20075;-67
2023/07/26 00:16:49;;;;;;;5.63;1.73;;;;;;;14.07;73.17;100178.28;7393892;19;20502;-67
2023/07/26 00:19:19;;;;;;;4.15;2.50;;;;;;;14.07;73.09;100173.84;7393747;19;20033;-67
2023/07/26 00:21:47;;;;;;;2.70;1.52;;;;;;;14.07;73.04;100183.56;7393593;19;20078;-67
2023/07/26 00:24:16;;;;;;;5.18;2.00;;;;;;;14.06;73.03;100182.69;7393561;19;20010;-67
2023/07/26 00:26:44;;;;;;;2.90;1.70;;;;;;;14.06;72.96;100184.47;7392411;19;20014;-68
2023/07/26 00:29:13;;;;;;;3.25;1.70;;;;;;;14.05;73.01;100182.75;7393470;19;20007;-68
2023/07/26 00:31:44;;;;;;;6.63;1.73;;;;;;;14.03;72.88;100188.13;7393110;19;20066;-68
2023/07/26 00:34:13;;;;;;;8.23;2.55;;;;;;;14.02;72.84;100186.41;7391968;19;20031;-68
2023/07/26 00:36:41;;;;;;;4.03;1.90;;;;;;;14.00;72.80;100186.47;7393756;19;20073;-67
2023/07/26 00:39:16;;;;;;;2.13;1.75;;;;;;;13.98;72.77;100196.22;7393273;19;20490;-68
2023/07/26 00:41:45;;;;;;;4.95;1.50;;;;;;;13.94;72.89;100193.78;7400732;19;20021;-68
2023/07/26 00:44:13;;;;;;;4.90;1.77;;;;;;;13.92;72.91;100195.66;7398571;19;20010;-67
2023/07/26 00:46:44;;;;;;;4.50;2.05;;;;;;;13.87;72.95;100202.91;7397679;19;20506;-67
2023/07/26 00:49:13;;;;;;;4.07;1.77;;;;;;;13.83;73.05;100200.38;7401103;19;20070;-68
2023/07/26 00:51:42;;;;;;;6.30;1.83;;;;;;;13.81;73.21;100209.28;7400139;19;20082;-68
2023/07/26 00:54:12;;;;;;;5.95;2.20;;;;;;;13.77;73.08;100213.84;7400521;19;20027;-67
2023/07/26 00:56:40;;;;;;;5.32;2.47;;;;;;;13.75;73.07;100215.69;7400118;19;20368;-67
2023/07/26 00:59:09;;;;;;;5.15;1.92;;;;;;;13.73;73.41;100204.34;7399917;19;20376;-67
2023/07/26 01:01:37;;;;;;;8.93;2.40;;;;;;;13.69;73.39;100208.91;7397678;19;20027;-68
2023/07/26 01:04:09;;;;;;;5.55;1.80;;;;;;;13.67;73.85;100213.41;7400159;19;20010;-67
2023/07/26 01:06:47;;;;;;;5.70;1.85;;;;;;;13.63;73.81;100209.16;7398667;19;20363;-67
2023/07/26 01:09:23;;;;;;;7.00;2.08;;;;;;;13.60;73.93;100214.59;7400309;19;20027;-67
2023/07/26 01:12:00;;;;;;;4.25;2.00;;;;;;;13.56;74.08;100213.00;7398980;19;20010;-67
2023/07/26 01:14:36;;;;;;;4.80;2.00;;;;;;;13.54;74.12;100214.84;7400945;19;20010;-66
2023/07/26 01:17:04;;;;;;;5.55;2.05;;;;;;;13.51;74.36;100215.81;7400128;19;20019;-67
2023/07/26 01:19:36;;;;;;;6.25;1.80;;;;;;;13.49;74.46;100220.28;7399600;19;20018;-66
2023/07/26 01:22:07;;;;;;;4.43;1.88;;;;;;;13.46;74.40;100214.31;7396827;19;20518;-66
2023/07/26 01:24:36;;;;;;;5.18;1.98;;;;;;;13.44;74.35;100218.78;7399128;19;20087;-66
2023/07/26 01:27:04;;;;;;;4.35;1.92;;;;;;;13.41;74.49;100222.41;7397878;19;20023;-66
2023/07/26 01:29:33;;;;;;;8.70;2.15;;;;;;;13.39;74.61;100218.13;7399325;19;20010;-66
2023/07/26 01:32:01;;;;;;;6.65;1.63;;;;;;;13.33;74.52;100219.19;7398564;19;20039;-67
2023/07/26 01:34:30;;;;;;;4.15;2.05;;;;;;;13.32;74.31;100220.09;7399142;19;20035;-67
2023/07/26 01:37:01;;;;;;;3.45;1.98;;;;;;;13.30;74.42;100224.59;7396878;19;20039;-67
2023/07/26 01:39:33;;;;;;;3.33;1.92;;;;;;;13.28;74.30;100224.66;7399488;19;20075;-66
2023/07/26 01:42:02;;;;;;;3.65;2.08;;;;;;;13.27;74.27;100222.06;7397880;19;20014;-66
2023/07/26 01:44:37;;;;;;;6.38;1.52;;;;;;;13.25;73.99;100226.56;7396822;19;20010;-67
2023/07/26 01:47:06;;;;;;;6.10;1.52;;;;;;;13.24;74.06;100223.06;7397104;19;20014;-68
2023/07/26 01:49:35;;;;;;;5.53;1.70;;;;;;;13.23;73.87;100228.41;7398571;19;20011;-65
2023/07/26 01:52:03;;;;;;;6.53;1.75;;;;;;;13.19;74.05;100227.66;7395601;19;20014;-66
2023/07/26 01:54:35;;;;;;;7.18;2.05;;;;;;;13.17;73.64;100230.38;7398694;19;20070;-66
2023/07/26 01:57:03;;;;;;;3.88;1.73;;;;;;;13.15;73.62;100231.34;7398890;19;20074;-66
2023/07/26 01:59:32;;;;;;;2.88;1.92;;;;;;;13.13;73.67;100234.06;7397993;19;20481;-66
2023/07/26 02:02:00;;;;;;;6.25;1.67;;;;;;;13.10;73.75;100236.78;7397261;19;20077;-66
2023/07/26 02:04:28;;;;;;;2.83;1.83;;;;;;;13.08;73.72;100230.75;7398176;19;20018;-66
2023/07/26 02:06:57;;;;;;;3.70;1.90;;;;;;;13.06;73.86;100234.38;7396836;19;20070;-66
2023/07/26 02:09:25;;;;;;;5.10;2.15;;;;;;;13.03;74.03;100235.34;7397914;19;20021;-66
2023/07/26 02:11:56;;;;;;;4.55;1.73;;;;;;;13.00;74.01;100233.69;7397271;19;20359;-66
2023/07/26 02:14:25;;;;;;;5.85;2.17;;;;;;;12.97;74.12;100239.06;7396548;19;20047;-67
2023/07/26 02:16:53;;;;;;;4.90;1.88;;;;;;;12.93;74.15;100242.75;7402341;19;20015;-66
2023/07/26 02:19:22;;;;;;;5.13;1.85;;;;;;;12.90;74.44;100250.75;7400898;19;20013;-67
2023/07/26 02:21:50;;;;;;;4.65;2.05;;;;;;;12.87;74.47;100253.53;7398638;19;20036;-66
2023/07/26 02:24:19;;;;;;;7.53;2.08;;;;;;;12.83;74.75;100268.56;7395829;19;20011;-66
2023/07/26 02:26:47;;;;;;;4.20;2.08;;;;;;;12.78;75.23;100257.38;7396431;19;20015;-65
2023/07/26 02:29:18;;;;;;;7.65;1.77;;;;;;;12.73;75.16;100261.09;7395229;19;20477;-66
2023/07/26 02:31:47;;;;;;;10.48;1.92;;;;;;;12.69;75.50;100257.72;7394923;19;20513;-66
2023/07/26 02:34:15;;;;;;;5.40;2.08;;;;;;;12.64;75.45;100267.59;7396517;19;20074;-66
2023/07/26 02:36:44;;;;;;;6.68;2.10;;;;;;;12.59;75.80;100269.53;7395106;19;20011;-66
2023/07/26 02:39:12;;;;;;;5.88;1.95;;;;;;;12.54;75.87;100269.69;7396375;19;20485;-66
2023/07/26 02:41:41;;;;;;;5.82;2.35;;;;;;;12.50;76.04;100279.47;7395967;19;20027;-67
2023/07/26 02:44:09;;;;;;;3.28;1.73;;;;;;;12.45;76.09;100284.03;7395348;19;20014;-66
2023/07/26 02:46:40;;;;;;;7.00;2.20;;;;;;;12.42;76.34;100275.41;7395723;19;20074;-67
2023/07/26 02:49:09;;;;;;;4.82;1.90;;;;;;;12.37;76.28;100288.72;7394672;19;20502;-66
2023/07/26 02:51:37;;;;;;;4.70;2.00;;;;;;;12.32;76.53;100283.66;7395865;19;20070;-67
2023/07/26 02:54:05;;;;;;;3.58;2.05;;;;;;;12.27;76.49;100290.84;7396706;19;20014;-67
2023/07/26 02:56:34;;;;;;;4.68;1.80;;;;;;;12.21;76.71;100289.28;7394692;19;20027;-67
2023/07/26 02:59:02;;;;;;;6.80;1.83;;;;;;;12.16;76.78;100288.59;7395976;19;20419;-67
2023/07/26 03:01:31;;;;;;;2.85;1.80;;;;;;;12.12;77.04;100297.50;7396148;19;20010;-67
2023/07/26 03:04:02;;;;;;;6.00;2.13;;;;;;;12.08;77.17;100297.66;7395146;19;20418;-67
2023/07/26 03:06:31;;;;;;;4.60;1.88;;;;;;;12.01;77.35;100305.75;7396049;19;20006;-67
2023/07/26 03:08:59;;;;;;;4.88;1.80;;;;;;;11.99;77.36;100314.59;7395461;19;20394;-67
2023/07/26 03:11:28;;;;;;;3.15;1.70;;;;;;;11.95;77.43;100310.34;7395335;19;20033;-68
2023/07/26 03:13:56;;;;;;;11.10;2.60;;;;;;;11.93;77.40;100318.28;7395706;19;20015;-67
2023/07/26 03:16:25;;;;;;;7.72;2.20;;;;;;;11.88;77.35;100321.06;7395700;19;20014;-68
2023/07/26 03:18:54;;;;;;;4.72;2.20;;;;;;;11.86;77.59;100320.25;7395859;19;20035;-67
2023/07/26 03:21:25;;;;;;;4.82;2.42;;;;;;;11.84;77.48;100318.59;7395466;19;20021;-67
2023/07/26 03:23:53;;;;;;;4.47;2.10;;;;;;;11.82;77.61;100318.63;7394416;19;20011;-67
2023/07/26 03:26:22;;;;;;;5.13;2.10;;;;;;;11.78;77.64;100326.66;7395287;19;20010;-67
2023/07/26 03:28:50;;;;;;;4.40;2.05;;;;;;;11.76;77.63;100325.88;7395410;19;20107;-67
2023/07/26 03:31:19;;;;;;;6.00;2.30;;;;;;;11.72;77.58;100333.84;7395322;19;20014;-66
2023/07/26 03:33:47;;;;;;;7.68;2.33;;;;;;;11.71;77.77;100332.16;7395045;19;20343;-67
2023/07/26 03:36:16;;;;;;;6.50;2.17;;;;;;;11.70;77.88;100343.56;7392942;19;20070;-66
2023/07/26 03:38:47;;;;;;;5.45;2.50;;;;;;;11.69;77.84;100340.97;7394983;19;20027;-66
2023/07/26 03:41:15;;;;;;;5.78;2.03;;;;;;;11.68;77.82;100339.28;7394689;19;20023;-66
2023/07/26 03:43:57;;;;;;;5.43;2.40;;;;;;;11.65;78.13;100344.63;7391791;19;20011;-66
2023/07/26 03:46:25;;;;;;;12.70;5.15;;;;;;;11.63;78.13;100347.31;7394858;19;20079;-67
2023/07/26 03:48:54;;;;;;;6.85;2.35;;;;;;;11.61;78.07;100349.09;7395234;19;20078;-67
2023/07/26 03:51:22;;;;;;;5.07;2.15;;;;;;;11.59;78.00;100353.56;7394705;19;20090;-67
2023/07/26 03:53:53;;;;;;;3.80;2.20;;;;;;;11.60;78.16;100355.31;7392807;19;20086;-67
2023/07/26 03:56:22;;;;;;;5.93;2.25;;;;;;;11.57;78.33;100355.38;7392878;19;20090;-67
2023/07/26 03:58:51;;;;;;;6.05;3.00;;;;;;;11.56;78.34;100353.66;7394429;19;20015;-66
2023/07/26 04:01:19;;;;;;;3.05;1.90;;;;;;;11.55;78.51;100354.56;7392005;19;20481;-68
2023/07/26 04:03:48;;;;;;;11.23;2.35;;;;;;;11.52;78.57;100355.50;7393873;19;20379;-66
2023/07/26 04:06:16;;;;;;;3.88;2.35;;;;;;;11.54;78.55;100358.97;7391396;19;20018;-66
2023/07/26 04:08:45;;;;;;;7.25;2.25;;;;;;;11.52;78.76;100360.78;7393941;19;20035;-67
2023/07/26 04:11:16;;;;;;;7.13;2.67;;;;;;;11.54;78.95;100363.38;7394987;19;20027;-67
2023/07/26 04:13:45;;;;;;;6.32;2.40;;;;;;;11.52;79.00;100359.94;7394720;19;20018;-66
2023/07/26 04:16:18;;;;;;;7.72;2.63;;;;;;;11.50;79.43;100353.84;7400113;19;20043;-67
2023/07/26 04:18:46;;;;;;;6.03;2.20;;;;;;;11.51;79.14;100361.72;7399256;19;20498;-67
2023/07/26 04:21:16;;;;;;;8.07;3.05;;;;;;;11.52;79.15;100357.31;7400528;19;20340;-67
2023/07/26 04:23:45;;;;;;;6.40;2.20;;;;;;;11.54;79.31;100358.13;7397904;19;20011;-66
2023/07/26 04:26:16;;;;;;;5.50;2.00;;;;;;;11.56;79.26;100356.28;7401061;19;20429;-66
2023/07/26 04:28:45;;;;;;;8.75;2.55;;;;;;;11.58;79.27;100370.25;7398446;19;20018;-66
2023/07/26 04:31:13;;;;;;;4.93;2.45;;;;;;;11.62;79.46;100371.00;7400788;19;20021;-66
2023/07/26 04:33:42;;;;;;;5.38;2.33;;;;;;;11.63;79.39;100373.56;7397590;19;20032;-66
2023/07/26 04:36:11;;;;;;;4.38;2.30;;;;;;;11.65;79.28;100371.78;7399982;19;20007;-65
2023/07/26 04:38:40;;;;;;;5.25;2.47;;;;;;;11.66;79.53;100368.22;7399807;19;20018;-66
2023/07/26 04:41:08;;;;;;;7.18;2.55;;;;;;;11.69;79.43;100369.88;7399220;19;20011;-66
2023/07/26 04:43:40;;;;;;;6.70;2.42;;;;;;;11.73;79.57;100379.41;7396736;19;20086;-66
2023/07/26 04:46:08;;;;;;;5.47;1.80;;;;;;;11.76;79.64;100384.53;7397411;19;20010;-66
2023/07/26 04:48:36;;;;;;;5.63;2.00;;;;;;;11.78;79.56;100379.22;7396659;19;20020;-65
2023/07/26 04:51:05;;;;;;;3.75;2.20;;;;;;;11.82;79.45;100381.72;7399048;19;20014;-66
2023/07/26 04:53:33;;;;;;;6.78;2.53;;;;;;;11.88;79.43;100383.31;7397025;19;20011;-66
2023/07/26 04:56:02;;;;;;;6.10;2.70;;;;;;;11.94;79.47;100385.72;7399167;19;20458;-66
2023/07/26 04:58:30;;;;;;;8.80;2.72;;;;;;;12.01;79.18;100389.88;7399643;19;20473;-66
2023/07/26 05:01:01;;;;;;;5.10;2.20;;;;;;;12.08;79.12;100382.69;7399518;19;20023;-67
2023/07/26 05:03:30;;;;;;;4.93;2.03;;;;;;;12.14;78.95;100381.59;7396883;19;20082;-67
2023/07/26 05:05:58;;;;;;;5.57;2.00;;;;;;;12.22;78.77;100383.06;7399048;19;20506;-67
2023/07/26 05:08:28;;;;;;;4.57;2.08;;;;;;;12.30;78.53;100380.16;7397114;19;20493;-67
2023/07/26 05:10:57;;;;;;;7.85;2.63;;;;;;;12.39;78.23;100392.13;7399230;19;20010;-67
2023/07/26 05:13:25;;;;;;;4.47;2.33;;;;;;;12.44;78.20;100379.66;7396636;19;20015;-67
2023/07/26 05:15:54;;;;;;;6.07;2.20;;;;;;;12.53;78.03;100389.00;7398997;19;20014;-67
2023/07/26 05:18:25;;;;;;;6.32;2.65;;;;;;;12.59;77.71;100396.69;7396999;19;20031;-67
2023/07/26 05:20:54;;;;;;;5.85;2.05;;;;;;;12.64;77.63;100409.69;7398356;19;20006;-66
2023/07/26 05:23:22;;;;;;;10.70;2.95;;;;;;;12.69;77.41;100399.84;7396193;19;20031;-67
2023/07/26 05:25:51;;;;;;;4.32;1.77;;;;;;;12.75;77.62;100401.41;7398660;19;20377;-65
2023/07/26 05:28:19;;;;;;;6.15;2.28;;;;;;;12.80;77.24;100402.97;7396736;19;20010;-65
2023/07/26 05:30:47;;;;;;;4.95;2.15;;;;;;;12.86;77.23;100396.59;7398858;19;20010;-64
2023/07/26 05:33:16;;;;;;;6.22;2.42;;;;;;;12.92;77.10;100403.44;7396426;19;20371;-65
2023/07/26 05:35:47;;;;;;;6.78;1.73;;;;;;;12.93;76.91;100398.09;7398552;19;20027;-66
2023/07/26 05:38:15;;;;;;;4.43;2.17;;;;;;;12.97;77.06;100399.69;7396574;19;20070;-65
2023/07/26 05:40:44;;;;;;;6.15;2.50;;;;;;;12.99;76.89;100412.78;7398092;19;20014;-65
2023/07/26 05:43:12;;;;;;;4.85;1.60;;;;;;;13.02;77.04;100404.81;7396148;19;20033;-65
2023/07/26 05:45:43;;;;;;;8.35;2.13;;;;;;;13.07;76.70;100404.59;7395502;19;20014;-65
2023/07/26 05:48:11;;;;;;;6.75;2.08;;;;;;;13.09;76.65;100402.78;7397391;19;20035;-65
2023/07/26 05:50:40;;;;;;;5.88;2.00;;;;;;;13.14;76.51;100414.00;7397870;19;20074;-65
2023/07/26 05:53:11;;;;;;;11.40;2.05;;;;;;;13.17;76.52;100404.22;7396085;19;20081;-64
2023/07/26 05:55:40;;;;;;;5.60;2.10;;;;;;;13.20;76.43;100404.13;7398053;19;20024;-65
2023/07/26 05:58:08;;;;;;;3.25;1.60;;;;;;;13.25;76.39;100410.97;7397425;19;20384;-64
2023/07/26 06:00:37;;;;;;;5.22;1.90;;;;;;;13.29;76.47;100402.03;7397731;19;20031;-67
2023/07/26 06:03:06;;;;;;;7.65;1.85;;;;;;;13.35;76.17;100422.88;7395623;19;20039;-65
2023/07/26 06:05:34;;;;;;;5.60;1.85;;;;;;;13.38;75.71;100425.41;7394454;19;20506;-67
2023/07/26 06:08:02;;;;;;;4.88;1.75;;;;;;;13.41;75.81;100414.78;7396159;19;20023;-66
2023/07/26 06:10:34;;;;;;;3.13;1.98;;;;;;;13.47;75.67;100414.53;7397190;19;20014;-65
2023/07/26 06:13:03;;;;;;;4.88;1.58;;;;;;;13.52;75.75;100415.22;7395443;19;20014;-66
2023/07/26 06:15:31;;;;;;;5.13;1.77;;;;;;;13.60;75.58;100428.09;7395523;19;20023;-65
2023/07/26 06:18:00;;;;;;;5.28;1.80;;;;;;;13.66;75.00;100427.84;7397028;19;20406;-64
2023/07/26 06:20:28;;;;;;;4.93;1.42;;;;;;;13.72;74.99;100421.44;7396848;19;20031;-65
2023/07/26 06:22:57;;;;;;;4.78;1.83;;;;;;;13.79;74.85;100427.34;7395616;19;20022;-66
2023/07/26 06:25:25;;;;;;;5.15;1.73;;;;;;;13.81;74.54;100426.38;7396494;19;20146;-65
2023/07/26 06:27:56;;;;;;;4.78;1.73;;;;;;;13.81;74.17;100420.22;7396464;19;20018;-67
2023/07/26 06:30:25;;;;;;;4.35;1.80;;;;;;;13.84;74.57;100425.38;7396719;19;20019;-66
2023/07/26 06:32:53;;;;;;;4.35;1.90;;;;;;;13.85;74.43;100424.47;7395279;19;20018;-65
2023/07/26 06:35:22;;;;;;;2.92;1.40;;;;;;;13.90;73.97;100424.25;7396902;19;20022;-65
2023/07/26 06:37:50;;;;;;;4.85;1.80;;;;;;;13.95;74.17;100427.56;7395145;19;20031;-65
2023/07/26 06:40:19;;;;;;;5.95;1.73;;;;;;;13.98;73.81;100422.19;7396165;19;20380;-66
2023/07/26 06:42:48;;;;;;;5.75;2.05;;;;;;;13.98;73.83;100422.19;7394892;19;20014;-66
2023/07/26 06:45:19;;;;;;;7.07;2.05;;;;;;;13.96;74.00;100422.25;7394075;19;20490;-65
2023/07/26 06:47:47;;;;;;;4.28;1.50;;;;;;;14.03;73.72;100428.13;7394444;19;20031;-65
2023/07/26 06:50:16;;;;;;;4.63;1.52;;;;;;;14.07;73.54;100434.16;7395443;19;20376;-66
2023/07/26 06:52:44;;;;;;;4.95;1.95;;;;;;;14.09;73.34;100432.28;7394674;19;20029;-66
2023/07/26 06:55:13;;;;;;;3.95;1.67;;;;;;;14.11;73.12;100425.19;7393793;19;20027;-66
2023/07/26 06:57:41;;;;;;;5.22;1.80;;;;;;;14.15;73.31;100430.28;7395343;19;20022;-65
2023/07/26 07:00:12;;;;;;;2.47;1.33;;;;;;;14.20;73.11;100437.13;7393655;19;20014;-66
2023/07/26 07:02:43;;;;;;;4.80;1.13;;;;;;;14.26;73.30;100442.16;7393712;19;20408;-66
2023/07/26 07:05:14;;;;;;;2.33;1.42;;;;;;;14.31;72.87;100434.91;7395348;19;20481;-66
2023/07/26 07:07:42;;;;;;;7.18;2.00;;;;;;;14.38;72.57;100438.13;7393743;19;20537;-66
2023/07/26 07:10:11;;;;;;;3.90;1.80;;;;;;;14.42;72.51;100437.94;7395044;19;20018;-66
2023/07/26 07:12:40;;;;;;;4.07;1.92;;;;;;;14.49;72.49;100442.03;7393962;19;20032;-66
2023/07/26 07:15:09;;;;;;;1.98;1.33;;;;;;;14.58;72.11;100438.13;7394659;19;20011;-66
2023/07/26 07:17:38;;;;;;;3.90;1.48;;;;;;;14.65;71.83;100436.97;7395309;19;20414;-66
2023/07/26 07:20:10;;;;;;;2.15;1.30;;;;;;;14.73;70.45;100451.63;7394837;19;20015;-67
2023/07/26 07:22:39;;;;;;;3.03;1.10;;;;;;;14.79;70.22;100436.34;7394075;19;20031;-66
2023/07/26 07:25:09;;;;;;;3.92;1.33;;;;;;;14.90;69.68;100441.19;7394743;19;20030;-66
2023/07/26 07:27:37;;;;;;;4.10;1.23;;;;;;;14.99;69.47;100432.81;7394412;19;20015;-66
2023/07/26 07:30:10;;;;;;;4.72;1.33;;;;;;;15.06;68.44;100449.25;7394773;19;20047;-66
2023/07/26 07:32:38;;;;;;;2.88;0.90;;;;;;;15.14;68.42;100449.78;7393005;19;20037;-65
2023/07/26 07:35:10;;;;;;;4.72;1.30;;;;;;;15.17;67.88;100446.13;7394174;19;20010;-67
2023/07/26 07:37:39;;;;;;;3.08;1.42;;;;;;;15.24;67.79;100446.69;7392779;19;20018;-66
2023/07/26 07:40:09;;;;;;;4.07;1.23;;;;;;;15.28;67.67;100449.13;7394025;19;20383;-67
2023/07/26 07:42:37;;;;;;;6.53;1.42;;;;;;;15.31;66.41;100454.28;7393780;19;20167;-66
2023/07/26 07:45:07;;;;;;;5.63;1.30;;;;;;;15.36;67.11;100450.56;7392793;19;20485;-66
2023/07/26 07:47:35;;;;;;;3.80;1.55;;;;;;;15.37;67.53;100447.00;7393692;19;20030;-66
2023/07/26 07:50:04;;;;;;;3.45;1.48;;;;;;;15.40;67.17;100439.78;7394409;19;20010;-65
2023/07/26 07:52:35;;;;;;;2.17;1.40;;;;;;;15.45;67.23;100445.69;7398409;19;20045;-65
2023/07/26 07:55:03;;;;;;;3.22;1.42;;;;;;;15.50;66.74;100444.66;7399581;19;20015;-66
2023/07/26 07:57:32;;;;;;;4.53;1.60;;;;;;;15.50;66.41;100449.94;7398549;19;20031;-66
2023/07/26 08:00:00;;;;;;;2.08;1.23;;;;;;;15.51;66.60;100464.88;7400648;19;20464;-67
2023/07/26 08:02:29;;;;;;;3.53;1.15;;;;;;;15.53;66.48;100445.38;7399662;19;20031;-67
2023/07/26 08:04:57;;;;;;;4.78;1.55;;;;;;;15.57;66.54;100443.41;7400934;19;20347;-67
2023/07/26 08:07:26;;;;;;;3.45;1.27;;;;;;;15.62;66.71;100450.19;7401081;19;20015;-66
2023/07/26 08:09:57;;;;;;;2.55;1.35;;;;;;;15.70;66.42;100455.13;7398619;19;20392;-66
2023/07/26 08:12:25;;;;;;;9.80;2.72;;;;;;;15.73;66.15;100446.19;7400350;19;20066;-67
2023/07/26 08:14:54;;;;;;;4.90;1.17;;;;;;;15.82;66.10;100447.56;7401288;19;20022;-67
2023/07/26 08:17:22;;;;;;;2.63;1.60;;;;;;;15.89;66.27;100449.00;7401273;19;20095;-66
2023/07/26 08:19:51;;;;;;;5.38;1.17;;;;;;;15.93;64.91;100455.84;7401917;19;20019;-67
2023/07/26 08:22:19;;;;;;;3.47;1.30;;;;;;;15.96;65.23;100460.97;7398966;19;20505;-66
2023/07/26 08:24:48;;;;;;;5.07;1.92;;;;;;;16.00;64.82;100454.63;7397467;19;20014;-67
2023/07/26 08:27:19;;;;;;;2.38;1.15;;;;;;;16.03;63.50;100449.16;7399928;19;20035;-66
2023/07/26 08:29:47;;;;;;;4.03;1.50;;;;;;;16.06;64.19;100456.97;7398305;19;20083;-64
2023/07/26 08:32:16;;;;;;;6.60;2.00;;;;;;;16.10;63.63;100447.94;7399209;19;20023;-67
2023/07/26 08:34:45;;;;;;;4.13;1.30;;;;;;;16.14;63.30;100453.94;7400275;19;20031;-65
2023/07/26 08:37:13;;;;;;;2.58;1.38;;;;;;;16.18;63.07;100446.69;7399990;19;20031;-66
2023/07/26 08:39:42;;;;;;;5.93;1.38;;;;;;;16.25;63.06;100456.03;7400134;19;20033;-67
2023/07/26 08:42:11;;;;;;;3.13;1.13;;;;;;;16.32;61.94;100446.00;7399239;19;20023;-65
2023/07/26 08:44:43;;;;;;;3.78;1.60;;;;;;;16.42;62.19;100442.78;7396008;19;20396;-66
2023/07/26 08:47:13;;;;;;;4.72;1.20;;;;;;;16.54;61.64;100448.41;7396765;19;20481;-66
2023/07/26 08:49:42;;;;;;;2.05;1.25;;;;;;;16.63;61.10;100444.41;7395347;19;20018;-65
2023/07/26 08:52:10;;;;;;;3.80;1.75;;;;;;;16.69;60.80;100452.91;7395860;19;20018;-65
2023/07/26 08:54:40;;;;;;;4.05;1.05;;;;;;;16.79;58.78;100445.34;7397067;19;20078;-65
2023/07/26 08:57:08;;;;;;;5.63;1.15;;;;;;;16.85;59.16;100454.75;7397017;19;20084;-67
2023/07/26 08:59:37;;;;;;;3.80;1.10;;;;;;;16.86;57.04;100449.38;7396915;19;20375;-66
2023/07/26 09:08:14;;;;;;;6.25;1.73;;;;;;;16.86;55.79;100456.47;7372768;19;20085;-66
2023/07/26 09:10:58;;;;;;;2.65;1.20;;;;;;;16.87;56.59;100444.91;6260549;19;22301841;-65
2023/07/26 09:13:27;;;;;;;4.47;1.25;;;;;;;16.94;57.26;100459.59;7400519;19;20015;-66
2023/07/26 09:15:57;;;;;;;2.50;1.15;;;;;;;17.00;57.96;100459.28;7398483;19;20086;-67
2023/07/26 09:18:28;;;;;;;4.95;1.30;;;;;;;17.06;57.57;100448.34;7396650;19;20010;-66
2023/07/26 09:21:04;;;;;;;3.00;1.30;;;;;;;17.13;57.19;100458.63;7398333;19;20484;-66
2023/07/26 09:23:32;;;;;;;2.35;1.60;;;;;;;17.21;57.31;100456.41;7398835;19;20015;-66
2023/07/26 09:26:03;;;;;;;5.25;1.60;;;;;;;17.26;56.63;100455.22;7396055;19;20082;-67
2023/07/26 09:28:32;;;;;;;3.28;1.50;;;;;;;17.33;56.54;100455.75;7398024;19;20406;-66
2023/07/26 09:31:01;;;;;;;1.90;1.20;;;;;;;17.34;55.83;100440.69;7399131;19;20027;-68
2023/07/26 09:33:29;;;;;;;2.25;1.13;;;;;;;17.49;55.38;100457.53;7398305;19;20022;-69
2023/07/26 09:35:58;;;;;;;4.38;1.23;;;;;;;17.57;55.35;100458.81;7397573;19;20077;-66
2023/07/26 09:38:29;;;;;;;1.73;1.00;;;;;;;17.61;54.99;100451.56;7397737;19;20010;-68
2023/07/26 09:40:58;;;;;;;1.20;0.70;;;;;;;17.59;54.08;100451.66;7397731;19;20509;-67
2023/07/26 09:43:35;;;;;;;1.85;0.93;;;;;;;17.55;54.57;100442.16;7399928;19;20010;-68
2023/07/26 09:46:05;;;;;;;3.88;1.35;;;;;;;17.63;55.05;100446.16;7395608;19;22200;-68
2023/07/26 09:48:33;;;;;;;2.85;1.42;;;;;;;17.66;54.27;100441.53;7395692;19;20074;-68
2023/07/26 09:51:06;;;;;;;3.15;1.48;;;;;;;17.70;53.78;100443.06;7397484;19;20028;-68
2023/07/26 09:53:36;;;;;;;2.03;1.02;;;;;;;17.71;53.89;100454.56;7399079;19;20066;-68
2023/07/26 09:56:06;;;;;;;1.45;1.02;;;;;;;17.73;53.74;100434.09;7400276;19;20027;-68
2023/07/26 09:58:38;;;;;;;3.50;1.33;;;;;;;17.78;53.94;100432.06;7395644;19;20512;-67
2023/07/26 10:01:07;;;;;;;3.78;1.33;;;;;;;17.86;54.10;100432.47;7395239;19;20471;-67
2023/07/26 10:03:38;;;;;;;1.95;1.10;;;;;;;17.94;54.11;100421.44;7397327;19;20342;-68
2023/07/26 10:06:07;;;;;;;3.22;1.27;;;;;;;18.00;52.54;100421.06;7396171;19;20461;-69
2023/07/26 10:08:37;;;;;;;1.50;0.80;;;;;;;18.00;52.62;100417.59;7395725;19;20669;-70
2023/07/26 10:11:08;;;;;;;2.55;0.80;;;;;;;17.95;51.60;100417.84;7395220;19;20025;-68
2023/07/26 10:13:40;;;;;;;3.53;1.20;;;;;;;17.96;51.27;100414.25;7396093;19;20078;-69
2023/07/26 10:16:11;;;;;;;3.15;1.10;;;;;;;18.02;52.06;100410.38;7397550;19;20010;-68
2023/07/26 10:18:39;;;;;;;2.53;1.23;;;;;;;18.06;50.82;100410.09;7394176;19;20010;-67
2023/07/26 10:21:09;;;;;;;6.70;1.40;;;;;;;18.12;50.92;100424.84;7396343;19;20082;-68
2023/07/26 10:23:38;;;;;;;1.88;1.00;;;;;;;18.23;51.21;100433.00;7394894;19;20028;-68
2023/07/26 10:26:07;;;;;;;3.17;1.30;;;;;;;18.31;50.92;100437.00;7396465;19;20027;-67
2023/07/26 10:28:39;;;;;;;2.80;1.30;;;;;;;18.40;49.80;100416.06;7396653;19;20010;-69
2023/07/26 10:31:07;;;;;;;2.55;1.30;;;;;;;18.53;49.84;100425.97;7396783;19;20418;-69
2023/07/26 10:33:45;;;;;;;1.50;1.23;;;;;;;18.64;49.45;100427.97;7396223;19;20078;-69
2023/07/26 10:36:15;;;;;;;3.05;1.02;;;;;;;18.69;50.09;100426.75;7396547;19;20011;-68
2023/07/26 10:38:50;;;;;;;2.38;1.02;;;;;;;18.78;49.12;100437.75;7396161;19;20480;-68
2023/07/26 10:41:26;;;;;;;2.28;0.80;;;;;;;18.76;47.99;100452.94;7396879;19;20010;-69
2023/07/26 10:44:09;;;;;;;1.95;1.13;;;;;;;18.55;45.66;100467.44;7396518;19;20021;-69
2023/07/26 10:46:51;;;;;;;2.53;0.68;;;;;;;18.12;46.22;100485.91;7395914;19;20014;-70
2023/07/26 10:49:24;;;;;;;3.38;1.00;;;;;;;17.75;48.41;100482.63;7394606;19;20078;-69
2023/07/26 10:52:00;;;;;;;1.37;0.60;;;;;;;17.35;49.43;100500.72;7396502;19;20010;-70
2023/07/26 10:54:39;;;;;;;2.50;0.82;;;;;;;17.07;53.40;100513.69;7394104;19;20014;-69
2023/07/26 10:57:20;;;;;;;2.08;0.90;;;;;;;16.61;58.85;100500.13;7394557;19;20079;-68
2023/07/26 10:59:58;;;;;;;1.42;0.80;;;;;;;15.86;62.48;100523.19;7396298;19;20010;-66
2023/07/26 11:02:37;;;;;;;2.50;0.80;;;;;;;15.17;64.08;100484.91;7395676;19;20007;-67
2023/07/26 11:05:07;;;;;;;2.95;0.80;;;;;;;14.62;66.80;100484.59;7393344;19;20035;-65
2023/07/26 11:07:55;;;;;;;1.70;0.90;;;;;;;14.14;71.51;100481.31;7393969;19;20033;-68
2023/07/26 11:10:39;;;;;;;2.22;0.95;;;;;;;13.84;70.07;100472.84;7392394;19;20094;-67
2023/07/26 11:13:15;;;;;;;1.25;0.90;;;;;;;13.68;70.93;100470.78;7395230;19;20478;-67
2023/07/26 11:15:48;;;;;;;2.78;1.20;;;;;;;13.62;71.52;100462.28;7393155;19;20031;-67
2023/07/26 11:18:18;;;;;;;4.72;2.55;;;;;;;13.65;71.77;100459.53;7395255;19;20077;-67
2023/07/26 11:20:48;;;;;;;1.65;1.10;;;;;;;13.74;72.00;100459.16;7394903;19;20098;-67
2023/07/26 11:23:19;;;;;;;1.35;0.98;;;;;;;13.87;72.17;100456.06;7395084;19;20371;-68
2023/07/26 11:25:47;;;;;;;1.33;0.88;;;;;;;13.99;72.13;100447.66;7392163;19;20356;-67
2023/07/26 11:28:16;;;;;;;2.17;1.50;;;;;;;14.08;72.46;100449.91;7392778;19;20082;-67
2023/07/26 11:30:50;;;;;;;1.20;0.88;;;;;;;14.24;73.53;100444.84;7392790;19;20428;-65
2023/07/26 11:33:27;;;;;;;;;;;;;;;14.39;72.75;100438.03;7394174;19;20081;-67
2023/07/26 11:35:56;;;;;;;1.27;1.00;;;;;;;14.57;71.26;100438.19;7394684;19;19925;-66
2023/07/26 11:38:24;;;;;;;1.60;1.10;;;;;;;14.72;70.62;100441.97;7393916;19;20540;-65
2023/07/26 11:40:55;;;;;;;1.67;1.00;;;;;;;14.88;70.00;100440.38;7394236;19;20070;-67
2023/07/26 11:43:25;;;;;;;3.80;1.95;;;;;;;15.08;69.27;100441.28;7394805;19;20021;-67